Danville Regional Airport
KDAN : now visible

Airfield :











YOU CAN JOIN US ON...

 
LOGIN :

Register | Disclaimer

   EN    FR    IT 

 









Legend :    VFR   Marginal VFR   IFR   Intensive IFR   Very Intensive IFR
Visi :
Ceiling :
>= 8 km
>= 3000ft
5 to 8 km
1000 to 3000 ft
1500m to 5 km
500 to 1000 ft
800 to 1500m
200 to 500 ft
< 800m
< 200 ft
Symbols :   Thunderstorms  Fog  Heavy snow  Heavy precipitations  Wind > 20 kt






- Airport Elevation : 571 ft
- IATA code : DAN


KDAN - Danville Regional

CURRENT METAR :
  • 281053Z AUTO 24008KT 10SM SCT044 10/04 A2976 RMK AO2 SLP071 T01000044

EXPIRED METARs :
  • 280953Z AUTO 25007KT 10SM CLR 10/04 A2974 RMK AO2 SLP064 T01000044
  • 280853Z AUTO 25009KT 10SM CLR 11/05 A2973 RMK AO2 SLP061 T01060050 51011

TAF KDAN
Valid from the 28 at 06:00 until the 29 at 06:00 UTC


280540Z 2806/2906 26011KT P6SM SKC
FM280900 28008KT P6SM FEW060
FM281800 31007KT P6SM SCT250
KZDC FIR / North America



MET'MAP, your aeronautical weather chart ! - Copyright ORBIFLY December 2007 - Disclaimer

ORBIFLY MET'MAP TEAM :

Programming & Development : Alexandra Zaïnal
Original concept : Baudouin d'Aumeries
Technical & hardware support : Manuel Goepfert
Assistance : Marc-Olivier Méhu




SOURCES & CREDITS :

   NOAA       Earth
Advisory